sensor_id;sensor_type;location;lat;lon;timestamp;temperature;humidity
20827;DHT22;10574;52.508;13.236;2023-02-15T00:02:04;2.30;99.90
20827;DHT22;10574;52.508;13.236;2023-02-15T00:04:31;2.30;99.90
20827;DHT22;10574;52.508;13.236;2023-02-15T00:07:15;2.20;99.90
20827;DHT22;10574;52.508;13.236;2023-02-15T00:09:46;2.20;99.90
20827;DHT22;10574;52.508;13.236;2023-02-15T00:12:14;2.10;99.90
20827;DHT22;10574;52.508;13.236;2023-02-15T00:14:41;2.00;99.90
20827;DHT22;10574;52.508;13.236;2023-02-15T00:17:09;1.90;99.90
20827;DHT22;10574;52.508;13.236;2023-02-15T00:19:37;1.90;99.90
20827;DHT22;10574;52.508;13.236;2023-02-15T00:22:04;1.90;99.90
20827;DHT22;10574;52.508;13.236;2023-02-15T00:24:32;1.80;99.90
20827;DHT22;10574;52.508;13.236;2023-02-15T00:27:00;1.80;99.90
20827;DHT22;10574;52.508;13.236;2023-02-15T00:29:27;1.80;99.90
20827;DHT22;10574;52.508;13.236;2023-02-15T00:31:55;1.80;99.90
20827;DHT22;10574;52.508;13.236;2023-02-15T00:34:24;1.70;99.90
20827;DHT22;10574;52.508;13.236;2023-02-15T00:36:53;1.70;99.90
20827;DHT22;10574;52.508;13.236;2023-02-15T00:39:20;1.60;99.90
20827;DHT22;10574;52.508;13.236;2023-02-15T00:41:48;1.60;99.90
20827;DHT22;10574;52.508;13.236;2023-02-15T00:44:16;1.50;99.90
20827;DHT22;10574;52.508;13.236;2023-02-15T00:46:43;1.50;99.90
20827;DHT22;10574;52.508;13.236;2023-02-15T00:49:11;1.60;99.90
20827;DHT22;10574;52.508;13.236;2023-02-15T00:51:39;1.60;99.90
20827;DHT22;10574;52.508;13.236;2023-02-15T00:54:06;1.70;99.90
20827;DHT22;10574;52.508;13.236;2023-02-15T00:56:34;1.70;99.90
20827;DHT22;10574;52.508;13.236;2023-02-15T00:59:02;1.70;99.90
20827;DHT22;10574;52.508;13.236;2023-02-15T01:01:30;1.60;99.90
20827;DHT22;10574;52.508;13.236;2023-02-15T01:03:57;1.50;99.90
20827;DHT22;10574;52.508;13.236;2023-02-15T01:06:25;1.50;99.90
20827;DHT22;10574;52.508;13.236;2023-02-15T01:08:52;1.50;99.90
20827;DHT22;10574;52.508;13.236;2023-02-15T01:11:22;1.50;99.90
20827;DHT22;10574;52.508;13.236;2023-02-15T01:13:55;1.50;99.90
20827;DHT22;10574;52.508;13.236;2023-02-15T01:16:20;1.40;99.90
20827;DHT22;10574;52.508;13.236;2023-02-15T01:18:48;1.40;99.90
20827;DHT22;10574;52.508;13.236;2023-02-15T01:21:19;1.40;99.90
20827;DHT22;10574;52.508;13.236;2023-02-15T01:23:47;1.40;99.90
20827;DHT22;10574;52.508;13.236;2023-02-15T01:26:15;1.40;99.90
20827;DHT22;10574;52.508;13.236;2023-02-15T01:28:43;1.40;99.90
20827;DHT22;10574;52.508;13.236;2023-02-15T01:31:16;1.40;99.90
20827;DHT22;10574;52.508;13.236;2023-02-15T01:33:44;1.40;99.90
20827;DHT22;10574;52.508;13.236;2023-02-15T01:36:13;1.50;99.90
20827;DHT22;10574;52.508;13.236;2023-02-15T01:38:41;1.50;99.90
20827;DHT22;10574;52.508;13.236;2023-02-15T01:41:09;1.40;99.90
20827;DHT22;10574;52.508;13.236;2023-02-15T01:43:56;1.40;99.90
20827;DHT22;10574;52.508;13.236;2023-02-15T01:46:31;1.40;99.90
20827;DHT22;10574;52.508;13.236;2023-02-15T01:49:08;1.30;99.90
20827;DHT22;10574;52.508;13.236;2023-02-15T01:51:35;1.30;99.90
20827;DHT22;10574;52.508;13.236;2023-02-15T01:54:15;1.20;99.90
20827;DHT22;10574;52.508;13.236;2023-02-15T01:56:41;1.20;99.90
20827;DHT22;10574;52.508;13.236;2023-02-15T01:59:16;1.20;99.90
20827;DHT22;10574;52.508;13.236;2023-02-15T02:01:39;1.10;99.90
20827;DHT22;10574;52.508;13.236;2023-02-15T02:04:19;1.10;99.90
20827;DHT22;10574;52.508;13.236;2023-02-15T02:06:48;1.10;99.90
20827;DHT22;10574;52.508;13.236;2023-02-15T02:09:16;1.00;99.90
20827;DHT22;10574;52.508;13.236;2023-02-15T02:11:46;1.00;99.90
20827;DHT22;10574;52.508;13.236;2023-02-15T02:14:15;1.00;99.90
20827;DHT22;10574;52.508;13.236;2023-02-15T02:16:52;1.00;99.90
20827;DHT22;10574;52.508;13.236;2023-02-15T02:22:32;0.90;99.90
20827;DHT22;10574;52.508;13.236;2023-02-15T02:25:11;0.90;99.90
20827;DHT22;10574;52.508;13.236;2023-02-15T02:33:36;0.80;99.90
20827;DHT22;10574;52.508;13.236;2023-02-15T02:36:26;0.80;99.90
20827;DHT22;10574;52.508;13.236;2023-02-15T02:38:58;0.80;99.90
20827;DHT22;10574;52.508;13.236;2023-02-15T02:42:13;0.80;99.90
20827;DHT22;10574;52.508;13.236;2023-02-15T02:44:25;0.80;99.90
20827;DHT22;10574;52.508;13.236;2023-02-15T02:47:02;0.90;99.90
20827;DHT22;10574;52.508;13.236;2023-02-15T02:49:34;0.90;99.90
20827;DHT22;10574;52.508;13.236;2023-02-15T02:52:34;0.90;99.90
20827;DHT22;10574;52.508;13.236;2023-02-15T02:54:36;0.90;99.90
20827;DHT22;10574;52.508;13.236;2023-02-15T02:57:05;0.90;99.90
20827;DHT22;10574;52.508;13.236;2023-02-15T02:59:38;0.90;99.90
20827;DHT22;10574;52.508;13.236;2023-02-15T03:02:09;0.90;99.90
20827;DHT22;10574;52.508;13.236;2023-02-15T03:04:39;0.90;99.90
20827;DHT22;10574;52.508;13.236;2023-02-15T03:07:11;0.80;99.90
20827;DHT22;10574;52.508;13.236;2023-02-15T03:09:49;0.80;99.90
20827;DHT22;10574;52.508;13.236;2023-02-15T03:12:30;0.90;99.90
20827;DHT22;10574;52.508;13.236;2023-02-15T03:15:03;0.90;99.90
20827;DHT22;10574;52.508;13.236;2023-02-15T03:17:37;0.90;99.90
20827;DHT22;10574;52.508;13.236;2023-02-15T03:20:08;0.90;99.90
20827;DHT22;10574;52.508;13.236;2023-02-15T03:22:52;0.80;99.90
20827;DHT22;10574;52.508;13.236;2023-02-15T03:25:25;0.80;99.90
20827;DHT22;10574;52.508;13.236;2023-02-15T03:27:54;0.70;99.90
20827;DHT22;10574;52.508;13.236;2023-02-15T03:30:22;0.80;99.90
20827;DHT22;10574;52.508;13.236;2023-02-15T03:32:51;0.70;99.90
20827;DHT22;10574;52.508;13.236;2023-02-15T03:35:22;0.70;99.90
20827;DHT22;10574;52.508;13.236;2023-02-15T03:37:57;0.70;99.90
20827;DHT22;10574;52.508;13.236;2023-02-15T03:40:36;0.70;99.90
20827;DHT22;10574;52.508;13.236;2023-02-15T03:46:34;0.70;99.90
20827;DHT22;10574;52.508;13.236;2023-02-15T03:49:07;0.70;99.90
20827;DHT22;10574;52.508;13.236;2023-02-15T03:51:37;0.70;99.90
20827;DHT22;10574;52.508;13.236;2023-02-15T03:57:12;0.70;99.90
20827;DHT22;10574;52.508;13.236;2023-02-15T03:59:54;0.80;99.90
20827;DHT22;10574;52.508;13.236;2023-02-15T04:05:19;0.80;99.90
20827;DHT22;10574;52.508;13.236;2023-02-15T04:07:47;0.80;99.90
20827;DHT22;10574;52.508;13.236;2023-02-15T04:10:15;0.90;99.90
20827;DHT22;10574;52.508;13.236;2023-02-15T04:13:00;0.90;99.90
20827;DHT22;10574;52.508;13.236;2023-02-15T04:15:28;0.80;99.90
20827;DHT22;10574;52.508;13.236;2023-02-15T04:18:14;0.80;99.90
20827;DHT22;10574;52.508;13.236;2023-02-15T04:20:46;0.80;99.90
20827;DHT22;10574;52.508;13.236;2023-02-15T04:23:32;0.80;99.90
20827;DHT22;10574;52.508;13.236;2023-02-15T04:26:18;0.80;99.90
20827;DHT22;10574;52.508;13.236;2023-02-15T04:28:45;0.80;99.90
20827;DHT22;10574;52.508;13.236;2023-02-15T04:31:13;0.70;99.90
20827;DHT22;10574;52.508;13.236;2023-02-15T04:33:40;0.70;99.90
20827;DHT22;10574;52.508;13.236;2023-02-15T04:36:09;0.70;99.90
20827;DHT22;10574;52.508;13.236;2023-02-15T04:38:37;0.60;99.90
20827;DHT22;10574;52.508;13.236;2023-02-15T04:41:05;0.60;99.90
20827;DHT22;10574;52.508;13.236;2023-02-15T04:43:32;0.60;99.90
20827;DHT22;10574;52.508;13.236;2023-02-15T04:46:00;0.60;99.90
20827;DHT22;10574;52.508;13.236;2023-02-15T04:48:27;0.60;99.90
20827;DHT22;10574;52.508;13.236;2023-02-15T04:50:55;0.50;99.90
20827;DHT22;10574;52.508;13.236;2023-02-15T04:53:23;0.50;99.90
20827;DHT22;10574;52.508;13.236;2023-02-15T04:55:50;0.50;99.90
20827;DHT22;10574;52.508;13.236;2023-02-15T04:58:18;0.50;99.90
20827;DHT22;10574;52.508;13.236;2023-02-15T05:00:45;0.50;99.90
20827;DHT22;10574;52.508;13.236;2023-02-15T05:03:13;0.50;99.90
20827;DHT22;10574;52.508;13.236;2023-02-15T05:05:40;0.50;99.90
20827;DHT22;10574;52.508;13.236;2023-02-15T05:08:08;0.50;99.90
20827;DHT22;10574;52.508;13.236;2023-02-15T05:10:35;0.50;99.90
20827;DHT22;10574;52.508;13.236;2023-02-15T05:13:03;0.50;99.90
20827;DHT22;10574;52.508;13.236;2023-02-15T05:15:31;0.40;99.90
20827;DHT22;10574;52.508;13.236;2023-02-15T05:17:59;0.40;99.90
20827;DHT22;10574;52.508;13.236;2023-02-15T05:20:28;0.40;99.90
20827;DHT22;10574;52.508;13.236;2023-02-15T05:22:56;0.30;99.90
20827;DHT22;10574;52.508;13.236;2023-02-15T05:25:23;0.30;99.90
20827;DHT22;10574;52.508;13.236;2023-02-15T05:28:12;0.30;99.90
20827;DHT22;10574;52.508;13.236;2023-02-15T05:30:51;0.20;99.90
20827;DHT22;10574;52.508;13.236;2023-02-15T05:33:19;0.20;99.90
20827;DHT22;10574;52.508;13.236;2023-02-15T05:35:47;0.20;99.90
20827;DHT22;10574;52.508;13.236;2023-02-15T05:38:14;0.20;99.90
20827;DHT22;10574;52.508;13.236;2023-02-15T05:40:42;0.20;99.90
20827;DHT22;10574;52.508;13.236;2023-02-15T05:43:09;0.20;99.90
20827;DHT22;10574;52.508;13.236;2023-02-15T05:45:37;0.20;99.90
20827;DHT22;10574;52.508;13.236;2023-02-15T05:48:05;0.10;99.90
20827;DHT22;10574;52.508;13.236;2023-02-15T05:50:32;0.10;99.90
20827;DHT22;10574;52.508;13.236;2023-02-15T05:53:00;0.10;99.90
20827;DHT22;10574;52.508;13.236;2023-02-15T05:55:27;0.10;99.90
20827;DHT22;10574;52.508;13.236;2023-02-15T05:57:55;0.00;99.90
20827;DHT22;10574;52.508;13.236;2023-02-15T06:00:22;0.00;99.90
20827;DHT22;10574;52.508;13.236;2023-02-15T06:02:50;0.00;99.90
20827;DHT22;10574;52.508;13.236;2023-02-15T06:05:18;0.00;99.90
20827;DHT22;10574;52.508;13.236;2023-02-15T06:07:46;0.00;99.90
20827;DHT22;10574;52.508;13.236;2023-02-15T06:10:13;0.00;99.90
20827;DHT22;10574;52.508;13.236;2023-02-15T06:12:41;0.00;99.90
20827;DHT22;10574;52.508;13.236;2023-02-15T06:15:09;0.00;99.90
20827;DHT22;10574;52.508;13.236;2023-02-15T06:17:36;0.00;99.90
20827;DHT22;10574;52.508;13.236;2023-02-15T06:20:05;0.00;99.90
20827;DHT22;10574;52.508;13.236;2023-02-15T06:22:32;0.00;99.90
20827;DHT22;10574;52.508;13.236;2023-02-15T06:25:00;0.00;99.90
20827;DHT22;10574;52.508;13.236;2023-02-15T06:27:28;0.00;99.90
20827;DHT22;10574;52.508;13.236;2023-02-15T06:29:56;0.00;99.90
20827;DHT22;10574;52.508;13.236;2023-02-15T06:32:23;0.00;99.90
20827;DHT22;10574;52.508;13.236;2023-02-15T06:34:51;0.00;99.90
20827;DHT22;10574;52.508;13.236;2023-02-15T06:37:19;-0.10;99.90
20827;DHT22;10574;52.508;13.236;2023-02-15T06:39:46;-0.10;99.90
20827;DHT22;10574;52.508;13.236;2023-02-15T06:42:14;0.00;99.90
20827;DHT22;10574;52.508;13.236;2023-02-15T06:44:42;0.00;99.90
20827;DHT22;10574;52.508;13.236;2023-02-15T06:47:09;0.00;99.90
20827;DHT22;10574;52.508;13.236;2023-02-15T06:49:38;0.10;99.90
20827;DHT22;10574;52.508;13.236;2023-02-15T06:52:06;0.10;99.90
20827;DHT22;10574;52.508;13.236;2023-02-15T06:54:33;0.10;99.90
20827;DHT22;10574;52.508;13.236;2023-02-15T06:57:01;0.00;99.90
20827;DHT22;10574;52.508;13.236;2023-02-15T06:59:29;0.10;99.90
20827;DHT22;10574;52.508;13.236;2023-02-15T07:01:56;0.10;99.90
20827;DHT22;10574;52.508;13.236;2023-02-15T07:04:25;0.10;99.90
20827;DHT22;10574;52.508;13.236;2023-02-15T07:06:54;0.20;99.90
20827;DHT22;10574;52.508;13.236;2023-02-15T07:09:22;0.30;99.90
20827;DHT22;10574;52.508;13.236;2023-02-15T07:11:50;0.30;99.90
20827;DHT22;10574;52.508;13.236;2023-02-15T07:14:35;0.30;99.90
20827;DHT22;10574;52.508;13.236;2023-02-15T07:17:03;0.40;99.90
20827;DHT22;10574;52.508;13.236;2023-02-15T07:19:30;0.30;99.90
20827;DHT22;10574;52.508;13.236;2023-02-15T07:21:58;0.20;99.90
20827;DHT22;10574;52.508;13.236;2023-02-15T07:24:26;0.30;99.90
20827;DHT22;10574;52.508;13.236;2023-02-15T07:26:54;0.30;99.90
20827;DHT22;10574;52.508;13.236;2023-02-15T07:29:21;0.30;99.90
20827;DHT22;10574;52.508;13.236;2023-02-15T07:31:49;0.30;99.90
20827;DHT22;10574;52.508;13.236;2023-02-15T07:34:17;0.20;99.90
20827;DHT22;10574;52.508;13.236;2023-02-15T07:36:45;0.20;99.90
20827;DHT22;10574;52.508;13.236;2023-02-15T07:39:12;0.20;99.90
20827;DHT22;10574;52.508;13.236;2023-02-15T07:41:40;0.20;99.90
20827;DHT22;10574;52.508;13.236;2023-02-15T07:44:11;0.30;99.90
20827;DHT22;10574;52.508;13.236;2023-02-15T07:46:39;0.40;99.90
20827;DHT22;10574;52.508;13.236;2023-02-15T07:49:07;0.40;99.90
20827;DHT22;10574;52.508;13.236;2023-02-15T07:51:35;0.40;99.90
20827;DHT22;10574;52.508;13.236;2023-02-15T07:54:03;0.50;99.90
20827;DHT22;10574;52.508;13.236;2023-02-15T07:56:30;0.50;99.90
20827;DHT22;10574;52.508;13.236;2023-02-15T07:58:59;0.60;99.90
20827;DHT22;10574;52.508;13.236;2023-02-15T08:01:31;0.60;99.90
20827;DHT22;10574;52.508;13.236;2023-02-15T08:03:59;0.70;99.90
20827;DHT22;10574;52.508;13.236;2023-02-15T08:06:29;0.60;99.90
20827;DHT22;10574;52.508;13.236;2023-02-15T08:08:57;0.50;99.90
20827;DHT22;10574;52.508;13.236;2023-02-15T08:11:31;0.50;99.90
20827;DHT22;10574;52.508;13.236;2023-02-15T08:14:20;0.40;99.90
20827;DHT22;10574;52.508;13.236;2023-02-15T08:16:50;0.40;99.90
20827;DHT22;10574;52.508;13.236;2023-02-15T08:19:29;0.50;99.90
20827;DHT22;10574;52.508;13.236;2023-02-15T08:22:03;0.60;99.90
20827;DHT22;10574;52.508;13.236;2023-02-15T08:24:34;0.60;99.90
20827;DHT22;10574;52.508;13.236;2023-02-15T08:27:05;0.60;99.90
20827;DHT22;10574;52.508;13.236;2023-02-15T08:29:34;0.70;99.90
20827;DHT22;10574;52.508;13.236;2023-02-15T08:32:07;0.80;99.90
20827;DHT22;10574;52.508;13.236;2023-02-15T08:34:38;0.80;99.90
20827;DHT22;10574;52.508;13.236;2023-02-15T08:37:06;0.70;99.90
20827;DHT22;10574;52.508;13.236;2023-02-15T08:39:34;0.70;99.90
20827;DHT22;10574;52.508;13.236;2023-02-15T08:42:02;0.70;99.90
20827;DHT22;10574;52.508;13.236;2023-02-15T08:44:30;0.70;99.90
20827;DHT22;10574;52.508;13.236;2023-02-15T08:46:57;0.70;99.90
20827;DHT22;10574;52.508;13.236;2023-02-15T08:49:27;0.70;99.90
20827;DHT22;10574;52.508;13.236;2023-02-15T08:51:54;0.80;99.90
20827;DHT22;10574;52.508;13.236;2023-02-15T08:54:26;0.90;99.90
20827;DHT22;10574;52.508;13.236;2023-02-15T08:56:53;0.80;99.90
20827;DHT22;10574;52.508;13.236;2023-02-15T08:59:22;0.80;99.90
20827;DHT22;10574;52.508;13.236;2023-02-15T09:01:52;0.90;99.90
20827;DHT22;10574;52.508;13.236;2023-02-15T09:04:20;0.90;99.90
20827;DHT22;10574;52.508;13.236;2023-02-15T09:06:49;1.00;99.90
20827;DHT22;10574;52.508;13.236;2023-02-15T09:09:18;1.20;99.90
20827;DHT22;10574;52.508;13.236;2023-02-15T09:11:49;1.40;99.90
20827;DHT22;10574;52.508;13.236;2023-02-15T09:14:19;1.40;99.90
20827;DHT22;10574;52.508;13.236;2023-02-15T09:16:49;1.40;99.90
20827;DHT22;10574;52.508;13.236;2023-02-15T09:19:20;1.30;99.90
20827;DHT22;10574;52.508;13.236;2023-02-15T09:21:48;1.40;99.90
20827;DHT22;10574;52.508;13.236;2023-02-15T09:24:16;1.50;99.90
20827;DHT22;10574;52.508;13.236;2023-02-15T09:26:46;1.60;99.90
20827;DHT22;10574;52.508;13.236;2023-02-15T09:29:15;1.60;99.90
20827;DHT22;10574;52.508;13.236;2023-02-15T09:31:48;1.60;99.90
20827;DHT22;10574;52.508;13.236;2023-02-15T09:34:19;1.50;99.90
20827;DHT22;10574;52.508;13.236;2023-02-15T09:36:47;1.60;99.90
20827;DHT22;10574;52.508;13.236;2023-02-15T09:39:17;1.70;99.90
20827;DHT22;10574;52.508;13.236;2023-02-15T09:53:20;2.10;99.90
20827;DHT22;10574;52.508;13.236;2023-02-15T10:12:02;2.40;99.90
20827;DHT22;10574;52.508;13.236;2023-02-15T10:28:16;2.80;99.90
20827;DHT22;10574;52.508;13.236;2023-02-15T10:30:48;2.70;99.90
20827;DHT22;10574;52.508;13.236;2023-02-15T10:52:42;3.00;99.90
20827;DHT22;10574;52.508;13.236;2023-02-15T10:55:18;3.40;99.90
20827;DHT22;10574;52.508;13.236;2023-02-15T11:00:32;3.40;99.90
20827;DHT22;10574;52.508;13.236;2023-02-15T11:03:09;3.50;99.90
20827;DHT22;10574;52.508;13.236;2023-02-15T11:05:42;3.50;99.90
20827;DHT22;10574;52.508;13.236;2023-02-15T11:08:11;3.70;99.90
20827;DHT22;10574;52.508;13.236;2023-02-15T11:10:48;4.00;99.90
20827;DHT22;10574;52.508;13.236;2023-02-15T11:13:18;4.00;99.90
20827;DHT22;10574;52.508;13.236;2023-02-15T11:18:36;3.80;99.90
20827;DHT22;10574;52.508;13.236;2023-02-15T11:21:10;4.00;99.90
20827;DHT22;10574;52.508;13.236;2023-02-15T11:23:43;4.10;99.90
20827;DHT22;10574;52.508;13.236;2023-02-15T11:26:24;4.20;99.90
20827;DHT22;10574;52.508;13.236;2023-02-15T11:28:52;4.50;99.90
20827;DHT22;10574;52.508;13.236;2023-02-15T11:31:26;4.90;99.90
20827;DHT22;10574;52.508;13.236;2023-02-15T11:34:11;5.20;99.90
20827;DHT22;10574;52.508;13.236;2023-02-15T11:36:37;5.40;99.90
20827;DHT22;10574;52.508;13.236;2023-02-15T11:39:14;5.60;99.90
20827;DHT22;10574;52.508;13.236;2023-02-15T11:41:46;5.70;99.90
20827;DHT22;10574;52.508;13.236;2023-02-15T11:44:12;5.90;99.90
20827;DHT22;10574;52.508;13.236;2023-02-15T11:46:39;6.00;99.90
20827;DHT22;10574;52.508;13.236;2023-02-15T11:51:57;6.20;99.90
20827;DHT22;10574;52.508;13.236;2023-02-15T11:54:32;6.40;99.90
20827;DHT22;10574;52.508;13.236;2023-02-15T11:57:04;6.30;99.90
20827;DHT22;10574;52.508;13.236;2023-02-15T11:59:34;6.50;99.90
20827;DHT22;10574;52.508;13.236;2023-02-15T12:02:26;6.80;99.90
20827;DHT22;10574;52.508;13.236;2023-02-15T12:04:36;7.00;99.90
20827;DHT22;10574;52.508;13.236;2023-02-15T12:07:30;7.00;99.90
20827;DHT22;10574;52.508;13.236;2023-02-15T12:10:13;7.00;99.90
20827;DHT22;10574;52.508;13.236;2023-02-15T12:12:36;7.10;99.90
20827;DHT22;10574;52.508;13.236;2023-02-15T12:15:07;7.10;99.90
20827;DHT22;10574;52.508;13.236;2023-02-15T12:17:40;7.10;99.90
20827;DHT22;10574;52.508;13.236;2023-02-15T12:23:04;7.10;99.90
20827;DHT22;10574;52.508;13.236;2023-02-15T12:28:38;7.40;99.90
20827;DHT22;10574;52.508;13.236;2023-02-15T12:31:10;7.60;99.90
20827;DHT22;10574;52.508;13.236;2023-02-15T12:33:44;7.30;99.90
20827;DHT22;10574;52.508;13.236;2023-02-15T12:36:27;7.30;99.90
20827;DHT22;10574;52.508;13.236;2023-02-15T12:44:33;7.80;99.90
20827;DHT22;10574;52.508;13.236;2023-02-15T12:49:39;8.00;99.90
20827;DHT22;10574;52.508;13.236;2023-02-15T12:52:06;8.20;99.90
20827;DHT22;10574;52.508;13.236;2023-02-15T12:54:37;8.20;99.90
20827;DHT22;10574;52.508;13.236;2023-02-15T12:57:22;8.30;99.90
20827;DHT22;10574;52.508;13.236;2023-02-15T12:59:57;8.30;99.90
20827;DHT22;10574;52.508;13.236;2023-02-15T13:02:28;8.40;99.90
20827;DHT22;10574;52.508;13.236;2023-02-15T13:04:57;8.50;99.90
20827;DHT22;10574;52.508;13.236;2023-02-15T13:07:29;8.50;99.90
20827;DHT22;10574;52.508;13.236;2023-02-15T13:09:57;8.60;99.90
20827;DHT22;10574;52.508;13.236;2023-02-15T13:12:27;8.50;99.90
20827;DHT22;10574;52.508;13.236;2023-02-15T13:14:57;8.70;99.90
20827;DHT22;10574;52.508;13.236;2023-02-15T13:17:32;8.60;99.90
20827;DHT22;10574;52.508;13.236;2023-02-15T13:20:04;8.70;99.90
20827;DHT22;10574;52.508;13.236;2023-02-15T13:22:34;8.70;99.90
20827;DHT22;10574;52.508;13.236;2023-02-15T13:25:10;8.70;99.90
20827;DHT22;10574;52.508;13.236;2023-02-15T13:27:37;8.60;99.90
20827;DHT22;10574;52.508;13.236;2023-02-15T13:30:18;8.70;99.90
20827;DHT22;10574;52.508;13.236;2023-02-15T13:32:46;9.00;99.90
20827;DHT22;10574;52.508;13.236;2023-02-15T13:35:16;9.20;99.90
20827;DHT22;10574;52.508;13.236;2023-02-15T13:38:11;9.40;99.90
20827;DHT22;10574;52.508;13.236;2023-02-15T13:40:53;9.50;99.90
20827;DHT22;10574;52.508;13.236;2023-02-15T13:46:31;9.20;99.90
20827;DHT22;10574;52.508;13.236;2023-02-15T13:49:08;9.30;99.90
20827;DHT22;10574;52.508;13.236;2023-02-15T13:51:46;9.60;99.90
20827;DHT22;10574;52.508;13.236;2023-02-15T13:54:27;9.70;99.90
20827;DHT22;10574;52.508;13.236;2023-02-15T13:57:22;9.70;99.90
20827;DHT22;10574;52.508;13.236;2023-02-15T14:00:13;9.90;99.90
20827;DHT22;10574;52.508;13.236;2023-02-15T14:11:27;9.90;99.90
20827;DHT22;10574;52.508;13.236;2023-02-15T14:17:07;9.50;99.90
20827;DHT22;10574;52.508;13.236;2023-02-15T14:19:45;9.70;99.90
20827;DHT22;10574;52.508;13.236;2023-02-15T14:22:25;10.00;99.90
20827;DHT22;10574;52.508;13.236;2023-02-15T14:25:13;10.00;99.90
20827;DHT22;10574;52.508;13.236;2023-02-15T14:28:05;10.00;99.90
20827;DHT22;10574;52.508;13.236;2023-02-15T14:30:38;10.10;99.90
20827;DHT22;10574;52.508;13.236;2023-02-15T14:35:56;10.20;99.90
20827;DHT22;10574;52.508;13.236;2023-02-15T14:38:50;10.20;99.90
20827;DHT22;10574;52.508;13.236;2023-02-15T14:41:18;10.10;99.90
20827;DHT22;10574;52.508;13.236;2023-02-15T14:49:26;10.20;99.90
20827;DHT22;10574;52.508;13.236;2023-02-15T14:51:55;10.20;99.90
20827;DHT22;10574;52.508;13.236;2023-02-15T14:59:45;10.00;99.90
20827;DHT22;10574;52.508;13.236;2023-02-15T15:02:22;10.00;99.90
20827;DHT22;10574;52.508;13.236;2023-02-15T15:05:12;10.00;99.90
20827;DHT22;10574;52.508;13.236;2023-02-15T15:07:53;10.00;99.90
20827;DHT22;10574;52.508;13.236;2023-02-15T15:12:56;10.10;99.90
20827;DHT22;10574;52.508;13.236;2023-02-15T15:18:06;10.10;99.90
20827;DHT22;10574;52.508;13.236;2023-02-15T15:20:46;10.20;99.90
20827;DHT22;10574;52.508;13.236;2023-02-15T15:25:54;10.10;99.90
20827;DHT22;10574;52.508;13.236;2023-02-15T15:31:24;10.10;99.90
20827;DHT22;10574;52.508;13.236;2023-02-15T15:34:17;10.10;99.90
20827;DHT22;10574;52.508;13.236;2023-02-15T15:42:43;9.80;99.90
20827;DHT22;10574;52.508;13.236;2023-02-15T15:50:59;9.30;99.90
20827;DHT22;10574;52.508;13.236;2023-02-15T15:53:30;9.20;99.90
20827;DHT22;10574;52.508;13.236;2023-02-15T15:56:01;9.20;99.90
20827;DHT22;10574;52.508;13.236;2023-02-15T15:58:29;9.10;99.90
20827;DHT22;10574;52.508;13.236;2023-02-15T16:01:02;9.00;99.90
20827;DHT22;10574;52.508;13.236;2023-02-15T16:03:30;8.90;99.90
20827;DHT22;10574;52.508;13.236;2023-02-15T16:05:58;8.80;99.90
20827;DHT22;10574;52.508;13.236;2023-02-15T16:10:57;8.70;99.90
20827;DHT22;10574;52.508;13.236;2023-02-15T16:13:25;8.50;99.90
20827;DHT22;10574;52.508;13.236;2023-02-15T16:15:55;8.40;99.90
20827;DHT22;10574;52.508;13.236;2023-02-15T16:18:25;8.30;99.90
20827;DHT22;10574;52.508;13.236;2023-02-15T16:21:01;8.20;99.90
20827;DHT22;10574;52.508;13.236;2023-02-15T16:26:32;8.00;99.90
20827;DHT22;10574;52.508;13.236;2023-02-15T16:28:54;7.90;99.90
20827;DHT22;10574;52.508;13.236;2023-02-15T16:31:22;7.80;99.90
20827;DHT22;10574;52.508;13.236;2023-02-15T16:33:54;7.80;99.90
20827;DHT22;10574;52.508;13.236;2023-02-15T16:36:24;7.70;99.90
20827;DHT22;10574;52.508;13.236;2023-02-15T16:41:29;7.60;99.90
20827;DHT22;10574;52.508;13.236;2023-02-15T16:44:02;7.50;99.90
20827;DHT22;10574;52.508;13.236;2023-02-15T16:46:30;7.40;99.90
20827;DHT22;10574;52.508;13.236;2023-02-15T16:49:01;7.30;99.90
20827;DHT22;10574;52.508;13.236;2023-02-15T16:51:32;7.30;99.90
20827;DHT22;10574;52.508;13.236;2023-02-15T16:54:05;7.20;99.90
20827;DHT22;10574;52.508;13.236;2023-02-15T16:56:33;7.10;99.90
20827;DHT22;10574;52.508;13.236;2023-02-15T16:59:02;7.00;99.90
20827;DHT22;10574;52.508;13.236;2023-02-15T17:01:31;6.90;99.90
20827;DHT22;10574;52.508;13.236;2023-02-15T17:07:13;6.60;99.90
20827;DHT22;10574;52.508;13.236;2023-02-15T17:09:35;6.50;99.90
20827;DHT22;10574;52.508;13.236;2023-02-15T17:12:03;6.30;99.90
20827;DHT22;10574;52.508;13.236;2023-02-15T17:14:31;6.20;99.90
20827;DHT22;10574;52.508;13.236;2023-02-15T17:17:14;6.10;99.90
20827;DHT22;10574;52.508;13.236;2023-02-15T17:19:50;6.10;99.90
20827;DHT22;10574;52.508;13.236;2023-02-15T17:22:25;6.10;99.90
20827;DHT22;10574;52.508;13.236;2023-02-15T17:24:57;6.10;99.90
20827;DHT22;10574;52.508;13.236;2023-02-15T17:27:22;6.00;99.90
20827;DHT22;10574;52.508;13.236;2023-02-15T17:29:52;5.90;99.90
20827;DHT22;10574;52.508;13.236;2023-02-15T17:32:23;5.90;99.90
20827;DHT22;10574;52.508;13.236;2023-02-15T17:42:34;5.50;99.90
20827;DHT22;10574;52.508;13.236;2023-02-15T17:45:02;5.40;99.90
20827;DHT22;10574;52.508;13.236;2023-02-15T17:47:30;5.40;99.90
20827;DHT22;10574;52.508;13.236;2023-02-15T17:49:58;5.30;99.90
20827;DHT22;10574;52.508;13.236;2023-02-15T17:52:28;5.30;99.90
20827;DHT22;10574;52.508;13.236;2023-02-15T17:54:56;5.40;99.90
20827;DHT22;10574;52.508;13.236;2023-02-15T17:57:43;5.40;99.90
20827;DHT22;10574;52.508;13.236;2023-02-15T18:00:12;5.30;99.90
20827;DHT22;10574;52.508;13.236;2023-02-15T18:02:58;5.30;99.90
20827;DHT22;10574;52.508;13.236;2023-02-15T18:05:43;5.20;99.90
20827;DHT22;10574;52.508;13.236;2023-02-15T18:08:29;5.20;99.90
20827;DHT22;10574;52.508;13.236;2023-02-15T18:11:15;5.10;99.90
20827;DHT22;10574;52.508;13.236;2023-02-15T18:14:06;5.00;99.90
20827;DHT22;10574;52.508;13.236;2023-02-15T18:16:36;5.00;99.90
20827;DHT22;10574;52.508;13.236;2023-02-15T18:19:12;5.00;99.90
20827;DHT22;10574;52.508;13.236;2023-02-15T18:21:36;4.80;99.90
20827;DHT22;10574;52.508;13.236;2023-02-15T18:24:04;4.70;99.90
20827;DHT22;10574;52.508;13.236;2023-02-15T18:26:32;4.60;99.90
20827;DHT22;10574;52.508;13.236;2023-02-15T18:28:59;4.60;99.90
20827;DHT22;10574;52.508;13.236;2023-02-15T18:31:27;4.50;99.90
20827;DHT22;10574;52.508;13.236;2023-02-15T18:33:57;4.50;99.90
20827;DHT22;10574;52.508;13.236;2023-02-15T18:36:38;4.40;99.90
20827;DHT22;10574;52.508;13.236;2023-02-15T18:39:08;4.30;99.90
20827;DHT22;10574;52.508;13.236;2023-02-15T18:41:34;4.20;99.90
20827;DHT22;10574;52.508;13.236;2023-02-15T18:44:02;4.20;99.90
20827;DHT22;10574;52.508;13.236;2023-02-15T18:46:30;4.20;99.90
20827;DHT22;10574;52.508;13.236;2023-02-15T18:48:58;4.20;99.90